Time;durP1;ratioP1;P1;durP2;ratioP2;P2;SDS_P1;SDS_P2;PMS_P1;PMS_P2;Temp;Humidity;BMP_temperature;BMP_pressure;BME280_temperature;BME280_humidity;BME280_pressure;Samples;Min_cycle;Max_cycle;Signal;HPM_P1;HPM_P2
2023/02/21 02:16:05;;;;;;;3.95;2.63;;;;;;;;;;5036087;28;20028;-78
2023/02/21 02:18:53;;;;;;;5.43;3.05;;;;;;;;;;5035635;28;20028;-78
2023/02/21 02:21:54;;;;;;;3.55;2.58;;;;;;;;;;5036795;28;20036;-77
2023/02/21 02:24:39;;;;;;;4.25;2.63;;;;;;;;;;5035596;28;20516;-77
2023/02/21 02:27:34;;;;;;;3.78;2.53;;;;;;;;;;5037085;28;20033;-77
2023/02/21 02:30:39;;;;;;;3.25;2.50;;;;;;;;;;5035883;28;20417;-78
2023/02/21 02:33:43;;;;;;;3.78;2.60;;;;;;;;;;5036172;28;20382;-77
2023/02/21 02:36:33;;;;;;;7.78;3.28;;;;;;;;;;5036219;28;20044;-77
2023/02/21 02:39:42;;;;;;;4.03;2.75;;;;;;;;;;5035767;28;20025;-77
2023/02/21 02:42:30;;;;;;;4.13;2.80;;;;;;;;;;5035258;28;20017;-77
2023/02/21 02:45:16;;;;;;;3.70;2.60;;;;;;;;;;5036334;28;20018;-76
2023/02/21 02:48:03;;;;;;;4.30;2.72;;;;;;;;;;5035904;28;20017;-77
2023/02/21 02:50:50;;;;;;;4.35;2.78;;;;;;;;;;5035725;28;20018;-77
2023/02/21 02:53:36;;;;;;;3.80;2.65;;;;;;;;;;5035013;28;20032;-78
2023/02/21 02:56:27;;;;;;;4.57;2.70;;;;;;;;;;5033598;28;20027;-78
2023/02/21 02:59:16;;;;;;;5.82;3.10;;;;;;;;;;5036468;28;20043;-78
2023/02/21 03:02:11;;;;;;;6.13;3.35;;;;;;;;;;5036083;28;20028;-78
2023/02/21 03:04:57;;;;;;;3.83;2.80;;;;;;;;;;5035492;28;20101;-77
2023/02/21 03:08:01;;;;;;;4.82;2.88;;;;;;;;;;5034922;28;20108;-78
2023/02/21 03:10:52;;;;;;;5.22;2.83;;;;;;;;;;5035529;28;20028;-78
2023/02/21 03:13:52;;;;;;;4.22;3.10;;;;;;;;;;5036079;28;20029;-78
2023/02/21 03:16:42;;;;;;;6.07;3.17;;;;;;;;;;5035615;28;20029;-77
2023/02/21 03:19:34;;;;;;;4.30;2.70;;;;;;;;;;5034421;28;20095;-78
2023/02/21 03:22:22;;;;;;;4.78;3.00;;;;;;;;;;5035160;28;20482;-78
2023/02/21 03:25:08;;;;;;;4.28;3.20;;;;;;;;;;5035747;28;20025;-78
2023/02/21 03:27:54;;;;;;;5.68;3.20;;;;;;;;;;5035666;28;20446;-77
2023/02/21 03:30:43;;;;;;;3.90;2.83;;;;;;;;;;5034423;28;20061;-77
2023/02/21 03:33:29;;;;;;;4.25;3.03;;;;;;;;;;5035424;28;20045;-78
2023/02/21 03:36:15;;;;;;;6.22;3.00;;;;;;;;;;5036105;28;20438;-79
2023/02/21 03:39:00;;;;;;;3.97;3.05;;;;;;;;;;5035433;28;20021;-78
2023/02/21 03:41:46;;;;;;;7.15;3.10;;;;;;;;;;5035609;28;20100;-77
2023/02/21 03:44:31;;;;;;;5.03;3.00;;;;;;;;;;5035453;28;20079;-77
2023/02/21 03:47:17;;;;;;;4.75;3.50;;;;;;;;;;5035220;28;20452;-78
2023/02/21 03:50:03;;;;;;;4.32;3.47;;;;;;;;;;5033345;28;20460;-78
2023/02/21 03:52:49;;;;;;;5.72;3.67;;;;;;;;;;5035449;28;20036;-78
2023/02/21 03:55:35;;;;;;;5.30;3.17;;;;;;;;;;5035707;28;20327;-79
2023/02/21 03:58:20;;;;;;;4.82;3.13;;;;;;;;;;5035432;28;20017;-78
2023/02/21 04:01:06;;;;;;;4.65;2.90;;;;;;;;;;5035594;28;20018;-79
2023/02/21 04:03:52;;;;;;;5.55;2.90;;;;;;;;;;5034746;28;20021;-77
2023/02/21 04:06:40;;;;;;;6.38;3.30;;;;;;;;;;5035081;28;20104;-78
2023/02/21 04:09:26;;;;;;;4.68;2.92;;;;;;;;;;5036372;28;20327;-79
2023/02/21 04:12:11;;;;;;;4.72;3.17;;;;;;;;;;5035115;28;20116;-77
2023/02/21 04:14:57;;;;;;;4.57;3.15;;;;;;;;;;5035467;28;20032;-77
2023/02/21 04:17:43;;;;;;;5.85;2.88;;;;;;;;;;5033973;28;20032;-78
2023/02/21 04:20:28;;;;;;;4.28;3.17;;;;;;;;;;5034316;28;20343;-78
2023/02/21 04:23:18;;;;;;;4.68;3.17;;;;;;;;;;5033418;28;20060;-78
2023/02/21 04:26:03;;;;;;;4.68;3.22;;;;;;;;;;5035569;28;20071;-78
2023/02/21 04:28:49;;;;;;;5.00;2.92;;;;;;;;;;5034935;28;20453;-78
2023/02/21 04:31:35;;;;;;;5.40;3.35;;;;;;;;;;5033550;28;20037;-78
2023/02/21 04:34:21;;;;;;;5.75;2.92;;;;;;;;;;5034313;28;20339;-78
2023/02/21 04:37:07;;;;;;;4.35;3.20;;;;;;;;;;5035155;28;20022;-77
2023/02/21 04:39:52;;;;;;;5.25;3.40;;;;;;;;;;5033701;28;20017;-78
2023/02/21 04:42:38;;;;;;;4.82;3.30;;;;;;;;;;5034263;28;20025;-79
2023/02/21 04:45:24;;;;;;;4.72;3.20;;;;;;;;;;5034788;28;20056;-78
2023/02/21 04:48:09;;;;;;;4.53;3.00;;;;;;;;;;5035189;28;20108;-78
2023/02/21 04:50:55;;;;;;;6.45;3.50;;;;;;;;;;5049249;28;20030;-79
2023/02/21 04:53:41;;;;;;;6.05;3.75;;;;;;;;;;5037493;28;20121;-78
2023/02/21 04:56:27;;;;;;;5.65;3.50;;;;;;;;;;5040674;28;20057;-78
2023/02/21 04:59:13;;;;;;;5.15;3.35;;;;;;;;;;5045826;28;20025;-79
2023/02/21 05:01:58;;;;;;;6.97;3.40;;;;;;;;;;5035408;28;20029;-78
2023/02/21 05:04:44;;;;;;;5.40;3.28;;;;;;;;;;5036071;28;20096;-79
2023/02/21 05:07:30;;;;;;;5.55;3.20;;;;;;;;;;5034901;28;20438;-78
2023/02/21 05:10:15;;;;;;;4.63;2.92;;;;;;;;;;5034097;28;20406;-78
2023/02/21 05:13:01;;;;;;;6.85;2.97;;;;;;;;;;5033941;28;20048;-78
2023/02/21 05:15:47;;;;;;;5.35;3.10;;;;;;;;;;5034298;28;20451;-79
2023/02/21 05:18:37;;;;;;;5.47;3.30;;;;;;;;;;5042401;28;20032;-77
2023/02/21 05:21:23;;;;;;;4.85;2.90;;;;;;;;;;5049426;28;20032;-78
2023/02/21 05:24:08;;;;;;;5.00;3.10;;;;;;;;;;5037760;28;20025;-80
2023/02/21 05:26:54;;;;;;;4.43;3.00;;;;;;;;;;5037488;28;20025;-77
2023/02/21 05:29:40;;;;;;;4.50;3.13;;;;;;;;;;5038305;28;20017;-79
2023/02/21 05:32:28;;;;;;;5.68;3.20;;;;;;;;;;5037758;28;20050;-79
2023/02/21 05:35:14;;;;;;;3.85;2.70;;;;;;;;;;5036335;28;20029;-79
2023/02/21 05:38:00;;;;;;;11.43;3.13;;;;;;;;;;5040804;28;20044;-78
2023/02/21 05:40:45;;;;;;;7.10;3.13;;;;;;;;;;5046730;28;20013;-79
2023/02/21 05:43:32;;;;;;;9.38;3.42;;;;;;;;;;5046884;28;20017;-78
2023/02/21 05:46:18;;;;;;;7.13;3.05;;;;;;;;;;5037988;28;20018;-79
2023/02/21 05:49:04;;;;;;;7.53;3.50;;;;;;;;;;5038616;28;20044;-79
2023/02/21 05:51:49;;;;;;;12.63;3.97;;;;;;;;;;5036644;28;20353;-79
2023/02/21 05:54:35;;;;;;;10.75;5.13;;;;;;;;;;5037068;28;20036;-79
2023/02/21 05:57:20;;;;;;;15.20;6.22;;;;;;;;;;5037432;28;20053;-79
2023/02/21 06:00:06;;;;;;;18.02;7.43;;;;;;;;;;5037048;28;20017;-80
2023/02/21 06:02:52;;;;;;;17.85;8.32;;;;;;;;;;5037405;28;20021;-79
2023/02/21 06:05:38;;;;;;;14.82;7.05;;;;;;;;;;5036679;28;20021;-78
2023/02/21 06:08:24;;;;;;;11.43;4.82;;;;;;;;;;5036914;28;20047;-79
2023/02/21 06:11:10;;;;;;;12.32;4.47;;;;;;;;;;5036401;28;20030;-77
2023/02/21 06:13:56;;;;;;;10.65;4.43;;;;;;;;;;5037586;28;20021;-79
2023/02/21 06:16:42;;;;;;;15.55;4.25;;;;;;;;;;5037063;28;20021;-78
2023/02/21 06:19:27;;;;;;;9.40;5.00;;;;;;;;;;5036702;28;20428;-79
2023/02/21 06:22:13;;;;;;;14.20;5.53;;;;;;;;;;5035903;28;20430;-79
2023/02/21 06:24:58;;;;;;;11.93;5.50;;;;;;;;;;5035998;28;20358;-76
2023/02/21 06:27:44;;;;;;;12.00;5.30;;;;;;;;;;5036587;28;20465;-76
2023/02/21 06:30:30;;;;;;;10.82;4.97;;;;;;;;;;5036346;28;20135;-76
2023/02/21 06:33:15;;;;;;;9.23;4.35;;;;;;;;;;5036324;28;20053;-76
2023/02/21 06:36:09;;;;;;;11.05;4.80;;;;;;;;;;5035819;28;20114;-77
2023/02/21 06:38:56;;;;;;;9.23;4.43;;;;;;;;;;5036897;28;20021;-78
2023/02/21 06:41:41;;;;;;;11.52;4.80;;;;;;;;;;5036252;28;20049;-80
2023/02/21 06:44:27;;;;;;;12.43;4.65;;;;;;;;;;5034459;28;20045;-77
2023/02/21 06:47:13;;;;;;;8.68;4.43;;;;;;;;;;5034487;28;20037;-77
2023/02/21 06:49:59;;;;;;;7.97;4.22;;;;;;;;;;5036161;28;20017;-78
2023/02/21 06:52:44;;;;;;;11.10;4.55;;;;;;;;;;5035438;28;20060;-77
2023/02/21 06:55:30;;;;;;;9.98;5.00;;;;;;;;;;5035317;28;20024;-77
2023/02/21 06:58:15;;;;;;;12.43;5.25;;;;;;;;;;5035404;28;20022;-78
2023/02/21 07:01:01;;;;;;;11.90;5.38;;;;;;;;;;5034703;28;20116;-78
2023/02/21 07:03:47;;;;;;;12.13;5.40;;;;;;;;;;5035942;28;20021;-77
2023/02/21 07:06:32;;;;;;;11.05;4.90;;;;;;;;;;5035354;28;20108;-78
2023/02/21 07:09:18;;;;;;;9.38;4.82;;;;;;;;;;5035612;28;20036;-77
2023/02/21 07:12:04;;;;;;;10.63;4.90;;;;;;;;;;5035646;28;20035;-78
2023/02/21 07:14:49;;;;;;;8.00;4.63;;;;;;;;;;5034913;28;20021;-77
2023/02/21 07:17:35;;;;;;;8.20;4.78;;;;;;;;;;5034878;28;20036;-77
2023/02/21 07:20:20;;;;;;;7.05;4.20;;;;;;;;;;5034954;28;20104;-77
2023/02/21 07:23:06;;;;;;;6.95;4.25;;;;;;;;;;5035244;28;20013;-77
2023/02/21 07:25:57;;;;;;;9.95;4.88;;;;;;;;;;5037468;28;20018;-81
2023/02/21 07:28:44;;;;;;;20.88;6.32;;;;;;;;;;5034185;28;20022;-77
2023/02/21 07:31:30;;;;;;;7.50;4.65;;;;;;;;;;5036154;28;20021;-78
2023/02/21 07:34:16;;;;;;;7.68;4.75;;;;;;;;;;5035959;28;20041;-78
2023/02/21 07:37:01;;;;;;;15.63;5.07;;;;;;;;;;5035677;28;20025;-78
2023/02/21 07:39:47;;;;;;;7.68;4.68;;;;;;;;;;5034749;28;20057;-78
2023/02/21 07:42:33;;;;;;;7.75;5.32;;;;;;;;;;5033554;28;20055;-78
2023/02/21 07:45:18;;;;;;;11.77;4.93;;;;;;;;;;5035207;28;20446;-79
2023/02/21 07:48:04;;;;;;;6.72;4.45;;;;;;;;;;5033395;28;20026;-78
2023/02/21 07:50:49;;;;;;;7.35;4.40;;;;;;;;;;5035572;28;20022;-81
2023/02/21 07:53:35;;;;;;;9.63;4.22;;;;;;;;;;5034633;28;20091;-80
2023/02/21 07:56:21;;;;;;;5.57;3.83;;;;;;;;;;5035778;28;20044;-78
2023/02/21 07:59:07;;;;;;;8.80;3.47;;;;;;;;;;5035104;28;20094;-80
2023/02/21 08:01:53;;;;;;;11.23;4.25;;;;;;;;;;5034175;28;20160;-78
2023/02/21 08:04:39;;;;;;;7.70;4.13;;;;;;;;;;5034170;28;20040;-78
2023/02/21 08:07:25;;;;;;;21.35;4.32;;;;;;;;;;5036216;28;20110;-78
2023/02/21 08:10:11;;;;;;;10.10;3.28;;;;;;;;;;5035649;28;20026;-77
2023/02/21 08:12:57;;;;;;;5.40;3.17;;;;;;;;;;5034915;28;20025;-78
2023/02/21 08:15:45;;;;;;;12.13;3.30;;;;;;;;;;5036045;28;20445;-76
2023/02/21 08:18:31;;;;;;;5.65;3.22;;;;;;;;;;5034794;28;20335;-77
2023/02/21 08:21:17;;;;;;;4.45;2.92;;;;;;;;;;5034198;28;20017;-78
2023/02/21 08:24:02;;;;;;;6.10;3.60;;;;;;;;;;5033023;28;20120;-78
2023/02/21 08:26:48;;;;;;;5.38;3.38;;;;;;;;;;5035021;28;20025;-78
2023/02/21 08:29:33;;;;;;;8.40;3.33;;;;;;;;;;5034983;28;20018;-78
2023/02/21 08:32:19;;;;;;;5.97;3.20;;;;;;;;;;5033771;28;20346;-77
2023/02/21 08:35:05;;;;;;;9.32;3.45;;;;;;;;;;5035384;28;20041;-80
2023/02/21 08:37:55;;;;;;;6.53;3.67;;;;;;;;;;5034713;28;20031;-79
2023/02/21 08:40:41;;;;;;;5.35;3.17;;;;;;;;;;5033119;28;20354;-79
2023/02/21 08:43:27;;;;;;;5.85;3.05;;;;;;;;;;5035623;28;20096;-79
2023/02/21 08:46:14;;;;;;;16.15;4.25;;;;;;;;;;5037236;28;20022;-79
2023/02/21 08:49:00;;;;;;;11.02;4.10;;;;;;;;;;5034533;28;20378;-79
2023/02/21 08:51:46;;;;;;;11.43;3.60;;;;;;;;;;5034864;28;20056;-78
2023/02/21 08:54:32;;;;;;;12.73;4.15;;;;;;;;;;5037063;28;20021;-78
2023/02/21 08:57:17;;;;;;;18.70;3.50;;;;;;;;;;5039184;28;20029;-77
2023/02/21 09:00:10;;;;;;;11.10;4.78;;;;;;;;;;5037997;28;20096;-78
2023/02/21 09:02:56;;;;;;;13.32;3.67;;;;;;;;;;5039124;28;20353;-79
2023/02/21 09:05:42;;;;;;;12.10;3.53;;;;;;;;;;5038375;28;20461;-76
2023/02/21 09:08:29;;;;;;;9.57;3.25;;;;;;;;;;5038954;28;20287;-75
2023/02/21 09:11:15;;;;;;;32.83;4.80;;;;;;;;;;5037989;28;20017;-78
2023/02/21 09:14:04;;;;;;;18.20;3.75;;;;;;;;;;5037199;28;20061;-77
2023/02/21 09:16:50;;;;;;;13.55;3.97;;;;;;;;;;5037180;28;20462;-77
2023/02/21 09:19:36;;;;;;;53.40;6.53;;;;;;;;;;5037972;28;20341;-73
2023/02/21 09:22:21;;;;;;;11.10;4.57;;;;;;;;;;5037462;28;20021;-73
2023/02/21 09:25:11;;;;;;;17.65;4.60;;;;;;;;;;5037429;28;20454;-74
2023/02/21 09:27:59;;;;;;;23.75;4.70;;;;;;;;;;5038189;28;20029;-74
2023/02/21 09:30:44;;;;;;;33.70;4.82;;;;;;;;;;5037974;28;20025;-75
2023/02/21 09:33:30;;;;;;;13.57;3.80;;;;;;;;;;5037456;28;20063;-74
2023/02/21 09:36:22;;;;;;;16.42;3.83;;;;;;;;;;5036683;28;20341;-74
2023/02/21 09:39:08;;;;;;;19.98;3.88;;;;;;;;;;5039594;28;20026;-73
2023/02/21 09:41:56;;;;;;;10.73;3.83;;;;;;;;;;5039592;28;20349;-74
2023/02/21 09:44:42;;;;;;;8.68;3.95;;;;;;;;;;5037391;28;20339;-75
2023/02/21 09:47:30;;;;;;;6.35;3.53;;;;;;;;;;5037641;28;20029;-74
2023/02/21 09:50:17;;;;;;;34.00;5.40;;;;;;;;;;5037735;28;20108;-75
2023/02/21 09:53:03;;;;;;;8.65;3.35;;;;;;;;;;5035626;28;20045;-74
2023/02/21 09:55:50;;;;;;;7.50;3.65;;;;;;;;;;5037301;28;20021;-75
2023/02/21 09:58:37;;;;;;;5.93;3.60;;;;;;;;;;5042623;28;20029;-73
2023/02/21 10:01:34;;;;;;;14.25;3.50;;;;;;;;;;5049667;28;20013;-75
2023/02/21 10:04:35;;;;;;;29.60;4.00;;;;;;;;;;5049580;28;20036;-75
2023/02/21 10:07:25;;;;;;;10.10;3.60;;;;;;;;;;5048684;28;20069;-73
2023/02/21 10:10:17;;;;;;;5.53;3.05;;;;;;;;;;5049003;28;20021;-73
2023/02/21 10:13:22;;;;;;;8.35;3.90;;;;;;;;;;5039178;28;20410;-75
2023/02/21 10:16:13;;;;;;;21.52;4.25;;;;;;;;;;5035809;28;20053;-75
2023/02/21 10:19:07;;;;;;;16.67;3.78;;;;;;;;;;5037302;28;20354;-74
2023/02/21 10:21:53;;;;;;;35.25;4.57;;;;;;;;;;5036776;28;20322;-74
2023/02/21 10:24:42;;;;;;;9.15;3.28;;;;;;;;;;5037225;28;20116;-75
2023/02/21 10:27:29;;;;;;;11.13;3.60;;;;;;;;;;5036247;28;20030;-77
2023/02/21 10:30:25;;;;;;;6.75;3.38;;;;;;;;;;5037560;28;20033;-76
2023/02/21 10:33:11;;;;;;;24.23;3.92;;;;;;;;;;5036163;28;20045;-76
2023/02/21 10:35:56;;;;;;;9.27;3.50;;;;;;;;;;5037967;28;20017;-76
2023/02/21 10:38:45;;;;;;;4.07;2.90;;;;;;;;;;5044022;28;20358;-76
2023/02/21 10:41:33;;;;;;;5.68;3.10;;;;;;;;;;5037368;28;20063;-76
2023/02/21 10:44:24;;;;;;;34.85;5.20;;;;;;;;;;5036961;28;20101;-76
2023/02/21 10:47:23;;;;;;;12.95;3.70;;;;;;;;;;5036681;28;20351;-74
2023/02/21 10:50:10;;;;;;;26.80;11.98;;;;;;;;;;5035777;28;20461;-75
2023/02/21 10:52:56;;;;;;;13.55;3.70;;;;;;;;;;5036593;28;20017;-77
2023/02/21 10:55:43;;;;;;;16.70;4.13;;;;;;;;;;5035685;28;20026;-76
2023/02/21 10:58:29;;;;;;;8.38;3.05;;;;;;;;;;5036499;28;20104;-77
2023/02/21 11:01:17;;;;;;;47.45;4.53;;;;;;;;;;5035173;28;20025;-75
2023/02/21 11:04:26;;;;;;;7.03;3.22;;;;;;;;;;5036936;28;20018;-76
2023/02/21 11:07:14;;;;;;;6.18;3.10;;;;;;;;;;5036132;28;20017;-75
2023/02/21 11:10:00;;;;;;;25.33;3.95;;;;;;;;;;5034875;28;20018;-75
2023/02/21 11:13:00;;;;;;;10.00;3.47;;;;;;;;;;5035408;28;20040;-75
2023/02/21 11:15:45;;;;;;;20.75;3.42;;;;;;;;;;5037567;28;20017;-76
2023/02/21 11:18:31;;;;;;;7.10;2.90;;;;;;;;;;5046018;28;20025;-76
2023/02/21 11:21:18;;;;;;;13.60;3.17;;;;;;;;;;5047352;28;20025;-77
2023/02/21 11:24:04;;;;;;;7.15;3.13;;;;;;;;;;5045114;28;20018;-78
2023/02/21 11:26:52;;;;;;;12.40;3.17;;;;;;;;;;5038511;28;20040;-77
2023/02/21 11:29:41;;;;;;;10.90;3.10;;;;;;;;;;5038595;28;20029;-77
2023/02/21 11:32:26;;;;;;;11.15;3.35;;;;;;;;;;5037705;28;20072;-77
2023/02/21 11:35:21;;;;;;;8.77;2.63;;;;;;;;;;5039680;28;20018;-77
2023/02/21 11:38:08;;;;;;;37.65;4.38;;;;;;;;;;5036911;28;20022;-78
2023/02/21 11:40:54;;;;;;;15.85;3.05;;;;;;;;;;5038248;28;20102;-77
2023/02/21 11:43:44;;;;;;;11.38;3.20;;;;;;;;;;5038670;28;20029;-78
2023/02/21 11:46:44;;;;;;;9.77;2.92;;;;;;;;;;5039210;28;20017;-80
2023/02/21 11:49:48;;;;;;;6.82;2.50;;;;;;;;;;5035268;28;20028;-77
2023/02/21 11:52:47;;;;;;;4.25;2.70;;;;;;;;;;5034324;28;20059;-76
2023/02/21 11:55:33;;;;;;;7.75;2.90;;;;;;;;;;5035691;28;20029;-78
2023/02/21 11:58:27;;;;;;;15.32;2.95;;;;;;;;;;5034520;28;20394;-76
2023/02/21 12:01:20;;;;;;;8.13;3.00;;;;;;;;;;5035262;28;20101;-78
2023/02/21 12:04:12;;;;;;;33.22;3.50;;;;;;;;;;5037868;28;20083;-83
2023/02/21 12:07:09;;;;;;;9.85;2.90;;;;;;;;;;5036970;28;20024;-79
2023/02/21 12:10:01;;;;;;;9.85;3.00;;;;;;;;;;5037379;28;20078;-78
2023/02/21 12:12:51;;;;;;;7.75;2.90;;;;;;;;;;5035225;28;20425;-77
2023/02/21 12:15:55;;;;;;;8.65;2.90;;;;;;;;;;5035737;28;20088;-80
2023/02/21 12:18:41;;;;;;;13.43;3.40;;;;;;;;;;5035161;28;20061;-82
2023/02/21 12:21:53;;;;;;;11.07;2.90;;;;;;;;;;5035731;28;20512;-80
2023/02/21 12:24:49;;;;;;;10.45;4.25;;;;;;;;;;5035565;28;20395;-80
2023/02/21 12:27:38;;;;;;;4.20;3.00;;;;;;;;;;5035778;28;20075;-75
2023/02/21 12:30:50;;;;;;;5.53;2.78;;;;;;;;;;5037583;28;20025;-74
2023/02/21 12:33:35;;;;;;;6.30;2.95;;;;;;;;;;5019662;28;20037;-75
2023/02/21 12:36:26;;;;;;;16.90;2.63;;;;;;;;;;5038545;28;20018;-74
2023/02/21 12:39:12;;;;;;;7.47;3.10;;;;;;;;;;5038412;28;20022;-75
2023/02/21 12:42:04;;;;;;;7.50;3.00;;;;;;;;;;5038637;28;20056;-74
2023/02/21 12:45:01;;;;;;;8.57;2.72;;;;;;;;;;5038938;28;20026;-75
2023/02/21 12:47:54;;;;;;;7.05;3.00;;;;;;;;;;5038451;28;20453;-74
2023/02/21 12:50:41;;;;;;;4.45;2.53;;;;;;;;;;5037368;28;20021;-75
2023/02/21 12:53:42;;;;;;;4.57;2.55;;;;;;;;;;5038528;28;20086;-75
2023/02/21 12:56:27;;;;;;;14.38;2.90;;;;;;;;;;5038752;28;20416;-75
2023/02/21 12:59:33;;;;;;;6.97;2.60;;;;;;;;;;5037728;28;20087;-74
2023/02/21 13:02:38;;;;;;;9.35;3.03;;;;;;;;;;5037680;28;20021;-75
2023/02/21 13:05:46;;;;;;;6.18;2.90;;;;;;;;;;5038382;28;20018;-76
2023/02/21 13:08:35;;;;;;;9.10;3.28;;;;;;;;;;5037344;28;20021;-75
2023/02/21 13:11:25;;;;;;;9.57;2.67;;;;;;;;;;5037990;28;20087;-75
2023/02/21 13:14:16;;;;;;;12.75;2.80;;;;;;;;;;5039135;28;20035;-74
2023/02/21 13:17:02;;;;;;;7.20;2.90;;;;;;;;;;5038294;28;20057;-74
2023/02/21 13:19:47;;;;;;;12.52;2.92;;;;;;;;;;5039224;28;20021;-75
2023/02/21 13:26:03;;;;;;;5.70;3.17;;;;;;;;;;5037317;28;20032;-75
2023/02/21 13:28:56;;;;;;;9.80;3.10;;;;;;;;;;5037006;28;20102;-74
2023/02/21 13:31:42;;;;;;;7.97;2.78;;;;;;;;;;5038476;28;20052;-75
2023/02/21 13:34:35;;;;;;;5.07;2.90;;;;;;;;;;5037953;28;20060;-75
2023/02/21 13:37:22;;;;;;;7.55;2.85;;;;;;;;;;5038802;28;20018;-75
2023/02/21 13:40:22;;;;;;;9.02;3.10;;;;;;;;;;5036175;28;20029;-75
2023/02/21 13:43:13;;;;;;;6.88;2.70;;;;;;;;;;5037470;28;20026;-75
2023/02/21 13:46:17;;;;;;;18.02;3.58;;;;;;;;;;5037303;28;20381;-75
2023/02/21 13:49:21;;;;;;;6.93;2.92;;;;;;;;;;5036668;28;20021;-73
2023/02/21 13:52:22;;;;;;;7.32;2.92;;;;;;;;;;5036546;28;20029;-74
2023/02/21 13:55:14;;;;;;;6.95;2.95;;;;;;;;;;5036805;28;20029;-74
2023/02/21 13:58:04;;;;;;;14.27;3.20;;;;;;;;;;5036655;28;20017;-75
2023/02/21 14:00:50;;;;;;;7.30;2.58;;;;;;;;;;5037329;28;20108;-73
2023/02/21 14:03:36;;;;;;;8.85;2.65;;;;;;;;;;5036899;28;20044;-74
2023/02/21 14:06:32;;;;;;;15.38;2.92;;;;;;;;;;5036528;28;20117;-75
2023/02/21 14:09:18;;;;;;;14.07;3.05;;;;;;;;;;5035675;28;20036;-75
2023/02/21 14:12:04;;;;;;;5.18;2.40;;;;;;;;;;5036475;28;20017;-74
2023/02/21 14:14:51;;;;;;;13.25;2.92;;;;;;;;;;5037356;28;20064;-76
2023/02/21 14:17:37;;;;;;;17.63;2.83;;;;;;;;;;5035615;28;20022;-74
2023/02/21 14:20:22;;;;;;;7.72;3.15;;;;;;;;;;5035803;28;20453;-74
2023/02/21 14:23:14;;;;;;;7.13;2.85;;;;;;;;;;5036707;28;20442;-75
2023/02/21 14:26:01;;;;;;;5.15;2.30;;;;;;;;;;5037033;28;20109;-74
2023/02/21 14:28:55;;;;;;;10.02;2.67;;;;;;;;;;5036159;28;20124;-75
2023/02/21 14:32:00;;;;;;;12.60;3.05;;;;;;;;;;5035984;28;20405;-74
2023/02/21 14:34:46;;;;;;;5.78;3.15;;;;;;;;;;5036770;28;20367;-72
2023/02/21 14:37:35;;;;;;;7.47;3.03;;;;;;;;;;5036447;28;20099;-74
2023/02/21 14:40:30;;;;;;;4.82;3.10;;;;;;;;;;5036073;28;20438;-73
2023/02/21 14:43:42;;;;;;;7.13;2.83;;;;;;;;;;5037152;28;20030;-73
2023/02/21 14:46:36;;;;;;;6.32;2.80;;;;;;;;;;5036577;28;20025;-74
2023/02/21 14:49:28;;;;;;;9.85;2.92;;;;;;;;;;5041301;28;20470;-74
2023/02/21 14:52:19;;;;;;;7.60;2.55;;;;;;;;;;5038962;28;20049;-77
2023/02/21 14:55:27;;;;;;;9.02;2.67;;;;;;;;;;5037865;28;20370;-78
2023/02/21 14:58:32;;;;;;;5.35;2.40;;;;;;;;;;5034765;28;20116;-74
2023/02/21 15:01:36;;;;;;;7.78;2.80;;;;;;;;;;5035902;28;20033;-76
2023/02/21 15:04:25;;;;;;;8.75;3.20;;;;;;;;;;5035378;28;20024;-75
2023/02/21 15:07:15;;;;;;;6.30;2.90;;;;;;;;;;5036504;28;20010;-74
2023/02/21 15:10:20;;;;;;;7.68;3.50;;;;;;;;;;5035827;28;20031;-74
2023/02/21 15:13:18;;;;;;;15.15;3.50;;;;;;;;;;5035259;28;20113;-76
2023/02/21 15:16:06;;;;;;;6.45;3.30;;;;;;;;;;5035854;28;20021;-75
2023/02/21 15:18:59;;;;;;;8.77;3.45;;;;;;;;;;5036594;28;20163;-75
2023/02/21 15:21:45;;;;;;;10.32;3.42;;;;;;;;;;5034762;28;20391;-74
2023/02/21 15:24:30;;;;;;;7.97;3.22;;;;;;;;;;5035876;28;20357;-75
2023/02/21 15:27:16;;;;;;;8.73;3.58;;;;;;;;;;5044401;28;20025;-75
2023/02/21 15:30:13;;;;;;;7.60;3.67;;;;;;;;;;5033829;28;20025;-75
2023/02/21 15:33:10;;;;;;;5.97;3.50;;;;;;;;;;5035094;28;20487;-75
2023/02/21 15:36:01;;;;;;;11.15;3.90;;;;;;;;;;5036094;28;20442;-76
2023/02/21 15:38:49;;;;;;;9.43;3.70;;;;;;;;;;5035733;28;20034;-75
2023/02/21 15:41:45;;;;;;;8.65;3.60;;;;;;;;;;5034390;28;20014;-74
2023/02/21 15:44:33;;;;;;;7.15;3.28;;;;;;;;;;5035460;28;20029;-73
2023/02/21 15:47:21;;;;;;;9.60;3.30;;;;;;;;;;5051751;28;20092;-74
2023/02/21 15:50:17;;;;;;;5.90;3.00;;;;;;;;;;5033438;28;20017;-74
2023/02/21 15:53:13;;;;;;;8.38;3.00;;;;;;;;;;5034950;28;20033;-75
2023/02/21 15:56:16;;;;;;;5.30;2.90;;;;;;;;;;5034615;28;20357;-74
2023/02/21 15:59:17;;;;;;;7.13;3.20;;;;;;;;;;5052862;28;20129;-77
2023/02/21 16:02:16;;;;;;;5.30;2.95;;;;;;;;;;5073077;28;20357;-74
2023/02/21 16:05:04;;;;;;;6.70;2.78;;;;;;;;;;5073640;28;20056;-76
2023/02/21 16:07:52;;;;;;;7.90;2.92;;;;;;;;;;5073154;28;20023;-75
2023/02/21 16:10:40;;;;;;;8.50;3.22;;;;;;;;;;5073838;28;20020;-77
2023/02/21 16:13:33;;;;;;;7.72;3.45;;;;;;;;;;5074025;28;20093;-76
2023/02/21 16:16:18;;;;;;;6.13;3.10;;;;;;;;;;5073489;28;20056;-76
2023/02/21 16:19:04;;;;;;;4.22;2.97;;;;;;;;;;5072713;28;20107;-77
2023/02/21 16:22:08;;;;;;;5.72;3.00;;;;;;;;;;5075243;28;20025;-76
2023/02/21 16:25:04;;;;;;;6.78;3.13;;;;;;;;;;5074172;28;20040;-79
2023/02/21 16:27:51;;;;;;;6.18;3.00;;;;;;;;;;5074070;28;20453;-77
2023/02/21 16:30:38;;;;;;;6.13;2.88;;;;;;;;;;5074365;28;20028;-80
2023/02/21 16:33:24;;;;;;;4.50;3.38;;;;;;;;;;5074607;28;20131;-81
2023/02/21 16:36:18;;;;;;;8.52;3.28;;;;;;;;;;5081506;28;20036;-84
2023/02/21 16:39:04;;;;;;;4.38;3.03;;;;;;;;;;5059794;28;20017;-81
2023/02/21 16:41:51;;;;;;;8.30;3.38;;;;;;;;;;5072824;28;20074;-80
2023/02/21 16:44:36;;;;;;;7.07;3.30;;;;;;;;;;5075095;28;20021;-83
2023/02/21 16:47:22;;;;;;;12.93;4.72;;;;;;;;;;5073555;28;20013;-81
2023/02/21 16:50:14;;;;;;;6.38;3.50;;;;;;;;;;5075417;28;20016;-81
2023/02/21 16:53:00;;;;;;;8.80;4.93;;;;;;;;;;5073614;28;20115;-80
2023/02/21 16:55:47;;;;;;;6.72;4.10;;;;;;;;;;5073847;28;20357;-79
2023/02/21 16:58:35;;;;;;;8.77;2.90;;;;;;;;;;5074016;28;20028;-81
2023/02/21 17:01:26;;;;;;;7.32;4.25;;;;;;;;;;5072797;28;20365;-82
2023/02/21 17:04:22;;;;;;;9.38;4.45;;;;;;;;;;5080866;28;20024;-81
2023/02/21 17:07:09;;;;;;;20.48;8.13;;;;;;;;;;5083769;28;20051;-80
2023/02/21 17:09:55;;;;;;;12.05;6.43;;;;;;;;;;5080242;28;20044;-80
2023/02/21 17:12:40;;;;;;;9.25;4.43;;;;;;;;;;5073311;28;20382;-75
2023/02/21 17:15:26;;;;;;;14.60;5.38;;;;;;;;;;5075037;28;20024;-78
2023/02/21 17:18:12;;;;;;;11.15;4.45;;;;;;;;;;5078790;28;20031;-79
2023/02/21 17:20:59;;;;;;;8.73;4.25;;;;;;;;;;5080719;28;20023;-77
2023/02/21 17:23:44;;;;;;;5.80;3.85;;;;;;;;;;5080658;28;20027;-79
2023/02/21 17:26:30;;;;;;;7.63;3.53;;;;;;;;;;5079774;28;20425;-78
2023/02/21 17:29:15;;;;;;;6.78;3.42;;;;;;;;;;5077575;28;20457;-76
2023/02/21 17:32:05;;;;;;;5.68;3.05;;;;;;;;;;5077050;28;20031;-78
2023/02/21 17:34:51;;;;;;;4.60;3.15;;;;;;;;;;5076151;28;20357;-78
2023/02/21 17:37:36;;;;;;;6.55;3.50;;;;;;;;;;5078285;28;20500;-78
2023/02/21 17:40:22;;;;;;;5.43;3.13;;;;;;;;;;5077201;28;20398;-78
2023/02/21 17:43:08;;;;;;;6.57;3.47;;;;;;;;;;5076845;28;20024;-77
2023/02/21 17:45:53;;;;;;;4.43;3.30;;;;;;;;;;5077944;28;20407;-78
2023/02/21 17:48:40;;;;;;;9.93;3.88;;;;;;;;;;5076736;28;20438;-78
2023/02/21 17:51:26;;;;;;;6.22;3.50;;;;;;;;;;5075653;28;20031;-77
2023/02/21 17:54:12;;;;;;;7.80;3.95;;;;;;;;;;5076474;28;20034;-77
2023/02/21 17:56:58;;;;;;;7.78;3.70;;;;;;;;;;5075527;28;20017;-77
2023/02/21 17:59:46;;;;;;;7.90;3.63;;;;;;;;;;5075845;28;20404;-79
2023/02/21 18:02:32;;;;;;;7.40;4.03;;;;;;;;;;5076032;28;20013;-78
2023/02/21 18:05:18;;;;;;;6.07;3.72;;;;;;;;;;5076567;28;20437;-77
2023/02/21 18:08:07;;;;;;;7.18;4.00;;;;;;;;;;5078081;28;20036;-78
2023/02/21 18:10:52;;;;;;;5.30;3.45;;;;;;;;;;5075558;28;20471;-80
2023/02/21 18:13:38;;;;;;;8.75;3.75;;;;;;;;;;5075495;28;20444;-79
2023/02/21 18:16:23;;;;;;;10.82;4.10;;;;;;;;;;5076594;28;20448;-79
2023/02/21 18:19:09;;;;;;;9.25;4.20;;;;;;;;;;5078516;28;20040;-81
2023/02/21 18:21:55;;;;;;;7.95;4.13;;;;;;;;;;5076400;28;20349;-79
2023/02/21 18:24:41;;;;;;;11.55;4.43;;;;;;;;;;5076670;28;20016;-78
2023/02/21 18:27:26;;;;;;;21.05;5.93;;;;;;;;;;5076141;28;20455;-79
2023/02/21 18:30:12;;;;;;;10.05;5.22;;;;;;;;;;5080364;28;20025;-79
2023/02/21 18:32:58;;;;;;;21.10;5.15;;;;;;;;;;5082165;28;20072;-81
2023/02/21 18:35:44;;;;;;;7.82;4.25;;;;;;;;;;5076414;28;20048;-79
2023/02/21 18:38:29;;;;;;;7.85;4.15;;;;;;;;;;5062260;28;20028;-80
2023/02/21 18:41:19;;;;;;;9.57;4.72;;;;;;;;;;5055763;28;20017;-80
2023/02/21 18:44:04;;;;;;;7.65;4.57;;;;;;;;;;5056656;28;20057;-80
2023/02/21 18:46:54;;;;;;;6.30;4.20;;;;;;;;;;5063227;28;20008;-79
2023/02/21 18:49:40;;;;;;;5.40;3.75;;;;;;;;;;5072470;28;20024;-77
2023/02/21 18:52:26;;;;;;;6.35;4.05;;;;;;;;;;5068881;28;20031;-79
2023/02/21 18:55:12;;;;;;;5.85;3.78;;;;;;;;;;5060322;28;20017;-79
2023/02/21 18:57:58;;;;;;;6.50;4.35;;;;;;;;;;5056773;28;20032;-78
2023/02/21 19:00:45;;;;;;;8.65;4.35;;;;;;;;;;5055129;28;20334;-81
2023/02/21 19:03:31;;;;;;;7.65;4.63;;;;;;;;;;5055148;28;20025;-77
2023/02/21 19:06:17;;;;;;;6.72;4.40;;;;;;;;;;5054710;28;20017;-79